Time;durP1;ratioP1;P1;durP2;ratioP2;P2;SDS_P1;SDS_P2;PMS_P1;PMS_P2;Temp;Humidity;BMP_temperature;BMP_pressure;BME280_temperature;BME280_humidity;BME280_pressure;Samples;Min_cycle;Max_cycle;Signal;HPM_P1;HPM_P2
2023/06/27 00:00:10;;;;;;;;;;;;;;;16.45;60.04;101924.88;5012404;28;19943;-76
2023/06/27 00:02:35;;;;;;;;;;;;;;;16.43;60.21;101924.03;5012785;28;19922;-76
2023/06/27 00:05:01;;;;;;;;;;;;;;;16.43;59.28;101922.25;4994690;28;19968;-76
2023/06/27 00:07:28;;;;;;;;;;;;;;;16.44;59.83;101920.44;5008081;28;19925;-77
2023/06/27 00:09:54;;;;;;;;;;;;;;;16.43;59.31;101919.56;5012167;28;19961;-76
2023/06/27 00:12:20;;;;;;;;;;;;;;;16.40;57.70;101916.13;4997400;28;19929;-76
2023/06/27 00:14:45;;;;;;;;;;;;;;;16.39;60.98;101922.38;5006649;28;19918;-76
2023/06/27 00:17:12;;;;;;;;;;;;;;;16.38;61.56;101918.81;5012406;28;19959;-76
2023/06/27 00:19:38;;;;;;;;;;;;;;;16.40;62.82;101924.16;4995097;28;19929;-76
2023/06/27 00:22:09;;;;;;;;;;;;;;;16.43;60.07;101919.56;4994647;28;19918;-76
2023/06/27 00:24:34;;;;;;;;;;;;;;;16.46;61.93;101922.16;5012089;28;20020;-76
2023/06/27 00:27:00;;;;;;;;;;;;;;;16.47;61.37;101931.06;5003634;28;20020;-76
2023/06/27 00:29:26;;;;;;;;;;;;;;;16.44;64.54;101917.75;5012522;28;19934;-76
2023/06/27 00:31:51;;;;;;;;;;;;;;;16.43;63.74;101921.38;4994565;28;20410;-76
2023/06/27 00:34:16;;;;;;;;;;;;;;;16.43;63.73;101921.38;4994562;28;19917;-76
2023/06/27 00:36:42;;;;;;;;;;;;;;;16.42;63.79;101923.19;5012183;28;20016;-76
2023/06/27 00:39:08;;;;;;;;;;;;;;;16.39;64.45;101923.25;4994641;28;20287;-76
2023/06/27 00:41:34;;;;;;;;;;;;;;;16.38;63.96;101917.97;4994351;28;19965;-76
2023/06/27 00:43:59;;;;;;;;;;;;;;;16.37;64.33;101919.75;4994453;28;20371;-76
2023/06/27 00:46:35;;;;;;;;;;;;;;;16.37;64.82;101917.09;4994107;28;19921;-76
2023/06/27 00:49:01;;;;;;;;;;;;;;;16.37;63.21;101926.88;5009942;28;19929;-76
2023/06/27 00:51:27;;;;;;;;;;;;;;;16.30;63.52;101923.53;4993984;28;20044;-76
2023/06/27 00:53:52;;;;;;;;;;;;;;;16.30;63.74;101923.53;5011529;28;19991;-76
2023/06/27 00:56:18;;;;;;;;;;;;;;;16.29;64.35;101921.75;4993928;28;19921;-76
2023/06/27 00:58:43;;;;;;;;;;;;;;;16.29;64.28;101921.75;5010087;28;19924;-76
2023/06/27 01:01:09;;;;;;;;;;;;;;;16.28;63.65;101928.03;4993879;28;19971;-76
2023/06/27 01:03:36;;;;;;;;;;;;;;;16.26;66.07;101930.75;5009969;28;19922;-76
2023/06/27 01:06:14;;;;;;;;;;;;;;;16.23;66.59;101921.94;5011181;28;19921;-76
2023/06/27 01:08:46;;;;;;;;;;;;;;;16.22;65.91;101930.88;4991611;28;19925;-76
2023/06/27 01:11:16;;;;;;;;;;;;;;;16.22;64.73;101920.16;4993524;28;20395;-76
2023/06/27 01:13:43;;;;;;;;;;;;;;;16.21;64.33;101924.66;4998057;28;19929;-76
2023/06/27 01:16:10;;;;;;;;;;;;;;;16.19;64.78;101918.47;4993405;28;19924;-76
2023/06/27 01:18:41;;;;;;;;;;;;;;;16.12;64.39;101923.13;5011098;28;19928;-76
2023/06/27 01:21:09;;;;;;;;;;;;;;;16.08;62.66;101923.25;5011179;28;19978;-76
2023/06/27 01:23:45;;;;;;;;;;;;;;;16.04;64.39;101921.56;5009538;28;20318;-76
2023/06/27 01:26:10;;;;;;;;;;;;;;;16.00;61.97;101919.88;5011033;28;20001;-76
2023/06/27 01:28:38;;;;;;;;;;;;;;;15.98;67.59;101921.75;5010658;28;20016;-76
2023/06/27 01:31:05;;;;;;;;;;;;;;;15.96;68.10;101926.25;5011004;28;19929;-76
2023/06/27 01:33:39;;;;;;;;;;;;;;;15.95;66.89;101921.81;5010577;28;19921;-76
2023/06/27 01:36:17;;;;;;;;;;;;;;;15.91;64.41;101921.91;5010111;28;19921;-76
2023/06/27 01:38:58;;;;;;;;;;;;;;;15.89;62.69;101922.88;5010278;28;19918;-76
2023/06/27 01:41:26;;;;;;;;;;;;;;;15.88;66.09;101918.44;4992767;28;20371;-76
2023/06/27 01:43:52;;;;;;;;;;;;;;;15.86;67.03;101922.94;4992686;28;19917;-76
2023/06/27 01:46:18;;;;;;;;;;;;;;;15.86;66.88;101915.81;5002988;28;20352;-76
2023/06/27 01:48:45;;;;;;;;;;;;;;;15.83;67.50;101920.38;4996939;28;19933;-76
2023/06/27 01:51:12;;;;;;;;;;;;;;;15.80;66.61;101915.09;4979049;28;19917;-76
2023/06/27 01:53:37;;;;;;;;;;;;;;;15.77;66.53;101908.03;4992386;28;19913;-76
2023/06/27 01:56:03;;;;;;;;;;;;;;;15.73;66.65;101910.84;4992564;28;19921;-76
2023/06/27 01:58:29;;;;;;;;;;;;;;;15.69;69.36;101918.00;4992278;28;19917;-76
2023/06/27 02:00:54;;;;;;;;;;;;;;;15.71;65.67;101921.56;4992394;28;19960;-76
2023/06/27 02:03:20;;;;;;;;;;;;;;;15.70;67.71;101914.44;4992352;28;19987;-76
2023/06/27 02:05:45;;;;;;;;;;;;;;;15.69;68.68;101915.34;4992231;28;19959;-76
2023/06/27 02:08:10;;;;;;;;;;;;;;;15.68;67.15;101911.81;4989896;28;19925;-76
2023/06/27 02:10:36;;;;;;;;;;;;;;;15.67;69.38;101911.84;4976406;28;20304;-76
2023/06/27 02:13:02;;;;;;;;;;;;;;;15.67;65.97;101911.84;4992069;28;19929;-76
2023/06/27 02:15:27;;;;;;;;;;;;;;;15.65;68.50;101913.66;5010293;28;20272;-76
2023/06/27 02:17:52;;;;;;;;;;;;;;;15.60;66.03;101908.47;4976194;28;19968;-76
2023/06/27 02:20:20;;;;;;;;;;;;;;;15.59;68.37;101909.38;5010190;28;19921;-76
2023/06/27 02:22:45;;;;;;;;;;;;;;;15.58;66.56;101909.38;5010646;28;19991;-76
2023/06/27 02:25:10;;;;;;;;;;;;;;;15.57;68.62;101904.97;4976084;28;19921;-76
2023/06/27 02:27:36;;;;;;;;;;;;;;;15.56;66.77;101908.56;4992313;28;19925;-76
2023/06/27 02:30:01;;;;;;;;;;;;;;;15.54;68.46;101899.72;4975855;28;20012;-76
2023/06/27 02:32:28;;;;;;;;;;;;;;;15.53;68.78;101896.19;4992308;28;20364;-76
2023/06/27 02:34:55;;;;;;;;;;;;;;;15.53;68.42;101903.28;5010251;28;19925;-76
2023/06/27 02:37:21;;;;;;;;;;;;;;;15.52;72.25;101896.22;5009813;28;20344;-76
2023/06/27 02:39:46;;;;;;;;;;;;;;;15.51;69.52;101889.13;4997466;28;20260;-76
2023/06/27 02:42:11;;;;;;;;;;;;;;;15.47;73.18;101896.31;4991115;28;19928;-76
2023/06/27 02:44:37;;;;;;;;;;;;;;;15.47;72.31;101891.84;4992333;28;20376;-76
2023/06/27 02:47:02;;;;;;;;;;;;;;;15.48;72.49;101898.09;4975775;28;19991;-76
2023/06/27 02:49:29;;;;;;;;;;;;;;;15.46;72.57;101903.47;5013607;28;20265;-76
2023/06/27 02:51:54;;;;;;;;;;;;;;;15.43;73.07;101903.56;4994969;28;19917;-76
2023/06/27 02:54:19;;;;;;;;;;;;;;;15.42;72.63;101893.78;4983190;28;19975;-76
2023/06/27 02:56:45;;;;;;;;;;;;;;;15.44;72.10;101899.09;5012252;28;19925;-76
2023/06/27 02:59:12;;;;;;;;;;;;;;;15.40;71.45;101890.25;4995828;28;20410;-76
2023/06/27 03:01:37;;;;;;;;;;;;;;;15.36;70.72;101896.59;4979695;28;19917;-76
2023/06/27 03:04:02;;;;;;;;;;;;;;;15.35;69.95;101897.50;4995737;28;19930;-76
2023/06/27 03:06:29;;;;;;;;;;;;;;;15.33;70.50;101907.38;4995718;28;19936;-76
2023/06/27 03:08:54;;;;;;;;;;;;;;;15.32;69.61;101900.25;4976642;28;19930;-76
2023/06/27 03:11:20;;;;;;;;;;;;;;;15.27;71.24;101905.69;4970158;28;20309;-76
2023/06/27 03:13:46;;;;;;;;;;;;;;;15.23;69.63;101897.81;5013302;28;19976;-76
2023/06/27 03:16:11;;;;;;;;;;;;;;;15.17;72.33;101912.19;5013668;28;20300;-76
2023/06/27 03:18:38;;;;;;;;;;;;;;;15.12;72.11;101914.09;4995417;28;20052;-76
2023/06/27 03:21:04;;;;;;;;;;;;;;;15.12;72.19;101914.09;4995427;28;20008;-76
2023/06/27 03:23:30;;;;;;;;;;;;;;;15.14;73.32;101914.06;4995566;28;20317;-76
2023/06/27 03:25:57;;;;;;;;;;;;;;;15.17;74.07;101914.84;4995522;28;20059;-76
2023/06/27 03:28:22;;;;;;;;;;;;;;;15.17;73.09;101911.31;4995367;28;20034;-76
2023/06/27 03:30:53;;;;;;;;;;;;;;;15.10;72.38;101909.69;4995318;28;19928;-76
2023/06/27 03:33:19;;;;;;;;;;;;;;;15.02;73.02;101918.75;4995112;28;19922;-76
2023/06/27 03:35:47;;;;;;;;;;;;;;;14.98;74.54;101911.72;5012925;28;19926;-76
2023/06/27 03:38:12;;;;;;;;;;;;;;;15.02;72.03;101910.75;4978850;28;19918;-76
2023/06/27 03:40:37;;;;;;;;;;;;;;;15.05;71.75;101908.00;4999110;28;19937;-76
2023/06/27 03:43:03;;;;;;;;;;;;;;;15.11;71.42;101915.00;5012772;28;20262;-76
2023/06/27 03:45:28;;;;;;;;;;;;;;;15.12;72.98;101906.06;5012582;28;19922;-76
2023/06/27 03:47:54;;;;;;;;;;;;;;;15.11;71.09;101909.69;4994131;28;19918;-76
2023/06/27 03:50:19;;;;;;;;;;;;;;;15.10;71.02;101915.91;4991046;28;20367;-76
2023/06/27 03:52:45;;;;;;;;;;;;;;;15.11;68.83;101919.44;5010975;28;19917;-76
2023/06/27 03:55:10;;;;;;;;;;;;;;;15.08;73.86;101916.84;4995235;28;19921;-76
2023/06/27 03:57:36;;;;;;;;;;;;;;;15.05;71.01;101924.00;4994579;28;20313;-76
2023/06/27 04:00:02;;;;;;;;;;;;;;;15.02;69.39;101913.41;4994273;28;19918;-76
2023/06/27 04:02:40;;;;;;;;;;;;;;;14.97;72.47;101917.13;5012462;28;19922;-76
2023/06/27 04:05:06;;;;;;;;;;;;;;;14.97;70.47;101909.13;4994750;28;19926;-76
2023/06/27 04:07:31;;;;;;;;;;;;;;;14.96;72.72;101912.69;4999613;28;20074;-76
2023/06/27 04:09:57;;;;;;;;;;;;;;;14.98;73.15;101914.38;4981386;28;20349;-76
2023/06/27 04:12:24;;;;;;;;;;;;;;;14.96;71.13;101915.34;5003414;28;19944;-76
2023/06/27 04:14:49;;;;;;;;;;;;;;;14.94;75.36;101914.53;5010585;28;20024;-76
2023/06/27 04:17:15;;;;;;;;;;;;;;;14.94;73.07;101923.41;4978334;28;20340;-76
2023/06/27 04:19:40;;;;;;;;;;;;;;;14.94;71.19;101920.72;4994129;28;19995;-76
2023/06/27 04:22:05;;;;;;;;;;;;;;;14.90;73.93;101915.50;4994327;28;20324;-78
2023/06/27 04:24:31;;;;;;;;;;;;;;;14.87;76.65;101913.78;4994377;28;19924;-76
2023/06/27 04:26:56;;;;;;;;;;;;;;;14.89;73.60;101919.97;4993958;28;20024;-76
2023/06/27 04:29:22;;;;;;;;;;;;;;;14.92;73.39;101919.00;5012220;28;19925;-76
2023/06/27 04:31:47;;;;;;;;;;;;;;;14.94;73.06;101920.72;4997926;28;19932;-76
2023/06/27 04:34:12;;;;;;;;;;;;;;;14.92;74.46;101924.34;5012074;28;19917;-76
2023/06/27 04:36:40;;;;;;;;;;;;;;;14.93;73.94;101920.75;5011633;28;20284;-76
2023/06/27 04:39:06;;;;;;;;;;;;;;;14.94;72.11;101928.72;5012051;28;19965;-76
2023/06/27 04:41:32;;;;;;;;;;;;;;;14.96;73.11;101929.59;5011803;28;19975;-76
2023/06/27 04:43:58;;;;;;;;;;;;;;;14.97;71.36;101930.44;5012241;28;19921;-77
2023/06/27 04:46:28;;;;;;;;;;;;;;;14.96;74.04;101928.69;5011725;28;19917;-76
2023/06/27 04:48:57;;;;;;;;;;;;;;;14.93;74.17;101924.28;5011365;28;19929;-76
2023/06/27 04:51:29;;;;;;;;;;;;;;;14.93;74.83;101931.44;4994001;28;19917;-76
2023/06/27 04:53:54;;;;;;;;;;;;;;;14.92;73.21;101927.00;4997628;28;19917;-76
2023/06/27 04:56:20;;;;;;;;;;;;;;;14.92;74.87;101935.88;4994020;28;20376;-76
2023/06/27 04:58:45;;;;;;;;;;;;;;;14.90;73.35;101936.84;5011435;28;19917;-76
2023/06/27 05:01:11;;;;;;;;;;;;;;;14.89;72.64;101932.44;5011721;28;19924;-76
2023/06/27 05:03:39;;;;;;;;;;;;;;;14.91;73.47;101935.91;5011153;28;19913;-76
2023/06/27 05:06:05;;;;;;;;;;;;;;;14.93;71.24;101932.28;4993178;28;19921;-76
2023/06/27 05:08:30;;;;;;;;;;;;;;;15.00;77.98;101933.03;4990230;28;19992;-76
2023/06/27 05:10:56;;;;;;;;;;;;;;;15.06;76.26;101940.91;5010407;28;19997;-76
2023/06/27 05:13:22;;;;;;;;;;;;;;;15.10;77.96;101939.91;5011138;28;19917;-76
2023/06/27 05:15:47;;;;;;;;;;;;;;;15.16;75.17;101945.13;4993512;28;19917;-76
2023/06/27 05:18:13;;;;;;;;;;;;;;;15.22;76.95;101944.09;4997399;28;20295;-76
2023/06/27 05:20:39;;;;;;;;;;;;;;;15.30;77.23;101936.78;5003651;28;19920;-76
2023/06/27 05:23:05;;;;;;;;;;;;;;;15.40;76.72;101937.44;4991540;28;19922;-76
2023/06/27 05:25:31;;;;;;;;;;;;;;;15.53;78.96;101935.31;5010958;28;19961;-76
2023/06/27 05:27:56;;;;;;;;;;;;;;;15.61;76.84;101930.69;5011080;28;20005;-76
2023/06/27 05:30:22;;;;;;;;;;;;;;;15.70;77.70;101930.47;5011010;28;19937;-76
2023/06/27 05:32:47;;;;;;;;;;;;;;;15.79;79.61;101932.91;5011076;28;19993;-76
2023/06/27 05:35:12;;;;;;;;;;;;;;;15.87;76.66;101930.94;5010967;28;19922;-76
2023/06/27 05:37:38;;;;;;;;;;;;;;;15.93;79.60;101926.34;5010746;28;19932;-76
2023/06/27 05:40:03;;;;;;;;;;;;;;;15.97;79.81;101931.53;5011092;28;20380;-76
2023/06/27 05:42:29;;;;;;;;;;;;;;;16.04;81.57;101930.44;5010921;28;19972;-76
2023/06/27 05:44:54;;;;;;;;;;;;;;;16.08;80.59;101920.56;5010966;28;20391;-76
2023/06/27 05:47:19;;;;;;;;;;;;;;;16.16;79.83;101934.59;4992774;28;19921;-76
2023/06/27 05:49:45;;;;;;;;;;;;;;;16.28;80.26;101925.38;5005947;28;19976;-76
2023/06/27 05:52:10;;;;;;;;;;;;;;;16.40;80.02;101921.47;5010762;28;20390;-76
2023/06/27 05:54:36;;;;;;;;;;;;;;;16.45;80.60;101931.09;4992957;28;19929;-76
2023/06/27 05:57:01;;;;;;;;;;;;;;;16.51;81.40;101932.72;4993332;28;19918;-76
2023/06/27 05:59:26;;;;;;;;;;;;;;;16.60;79.03;101931.56;5010779;28;20308;-76
2023/06/27 06:01:52;;;;;;;;;;;;;;;16.69;80.17;101928.59;5010694;28;19982;-76
2023/06/27 06:04:17;;;;;;;;;;;;;;;16.80;79.39;101933.69;5010666;28;19941;-76
2023/06/27 06:06:43;;;;;;;;;;;;;;;16.86;78.32;101922.78;4991957;28;20372;-76
2023/06/27 06:09:08;;;;;;;;;;;;;;;16.95;79.31;101923.38;4988467;28;19925;-76
2023/06/27 06:11:34;;;;;;;;;;;;;;;17.04;79.32;101932.06;5006773;28;20241;-76
2023/06/27 06:14:03;;;;;;;;;;;;;;;17.09;79.69;101927.44;5010457;28;19930;-76
2023/06/27 06:16:30;;;;;;;;;;;;;;;17.19;79.64;101931.56;5010595;28;19972;-76
2023/06/27 06:18:55;;;;;;;;;;;;;;;17.28;79.48;101925.03;4992830;28;19922;-76
2023/06/27 06:21:21;;;;;;;;;;;;;;;17.39;78.40;101933.59;5009009;28;20012;-76
2023/06/27 06:23:46;;;;;;;;;;;;;;;17.54;78.22;101927.72;5000693;28;19983;-76
2023/06/27 06:26:12;;;;;;;;;;;;;;;17.69;78.17;101928.13;4996733;28;19921;-76
2023/06/27 06:28:38;;;;;;;;;;;;;;;17.80;77.12;101928.66;4996706;28;19921;-76
2023/06/27 06:31:04;;;;;;;;;;;;;;;17.94;76.90;101936.22;5014540;28;20375;-76
2023/06/27 06:33:29;;;;;;;;;;;;;;;18.00;76.73;101939.56;5014293;28;19922;-76
2023/06/27 06:35:55;;;;;;;;;;;;;;;18.09;76.26;101941.03;5014499;28;19960;-76
2023/06/27 06:38:20;;;;;;;;;;;;;;;18.21;75.57;101942.41;4996352;28;19926;-76
2023/06/27 06:40:45;;;;;;;;;;;;;;;18.29;74.96;101950.16;4990062;28;19918;-77
2023/06/27 06:43:11;;;;;;;;;;;;;;;18.39;75.39;101949.75;5007113;28;19983;-76
2023/06/27 06:45:36;;;;;;;;;;;;;;;18.56;75.02;101949.13;5014067;28;20020;-77
2023/06/27 06:48:01;;;;;;;;;;;;;;;18.66;73.12;101949.66;5013941;28;19975;-76
2023/06/27 06:50:27;;;;;;;;;;;;;;;18.68;72.77;101948.66;4996229;28;19925;-77
2023/06/27 06:52:52;;;;;;;;;;;;;;;18.81;73.25;101948.25;4976534;28;19953;-77
2023/06/27 06:55:18;;;;;;;;;;;;;;;18.95;71.79;101953.94;5008717;28;20340;-77
2023/06/27 06:57:43;;;;;;;;;;;;;;;19.03;71.97;101954.50;5013892;28;20435;-76
2023/06/27 07:00:09;;;;;;;;;;;;;;;19.17;72.53;101956.66;4996578;28;20037;-77
2023/06/27 07:02:35;;;;;;;;;;;;;;;19.29;71.82;101950.78;5014090;28;19918;-77
2023/06/27 07:05:00;;;;;;;;;;;;;;;19.41;69.98;101951.22;5014102;28;19924;-77
2023/06/27 07:07:26;;;;;;;;;;;;;;;19.49;68.91;101941.91;5000761;28;20406;-76
2023/06/27 07:09:51;;;;;;;;;;;;;;;19.64;67.42;101948.44;4996182;28;19928;-77
2023/06/27 07:12:17;;;;;;;;;;;;;;;19.76;65.63;101945.28;5014135;28;20044;-77
2023/06/27 07:14:42;;;;;;;;;;;;;;;19.93;64.59;101951.72;4996214;28;20024;-77
2023/06/27 07:17:08;;;;;;;;;;;;;;;20.08;64.04;101958.25;4987994;28;20033;-77
2023/06/27 07:19:33;;;;;;;;;;;;;;;20.14;61.20;101953.47;4990598;28;19975;-77
2023/06/27 07:21:58;;;;;;;;;;;;;;;20.08;61.20;101950.16;5013605;28;19990;-77
2023/06/27 07:24:25;;;;;;;;;;;;;;;20.05;60.68;101958.38;4979879;28;20256;-77
2023/06/27 07:26:51;;;;;;;;;;;;;;;19.95;59.69;101939.09;5013298;28;19921;-77
2023/06/27 07:29:17;;;;;;;;;;;;;;;19.80;59.76;101950.50;4996068;28;19936;-76
2023/06/27 07:31:43;;;;;;;;;;;;;;;19.85;59.26;101948.50;4995375;28;20001;-77
2023/06/27 07:34:08;;;;;;;;;;;;;;;19.94;58.85;101950.78;5012561;28;20100;-77
2023/06/27 07:36:33;;;;;;;;;;;;;;;20.15;60.74;101940.91;5012889;28;19979;-76
2023/06/27 07:38:59;;;;;;;;;;;;;;;20.33;59.13;101942.78;5013391;28;20032;-77
2023/06/27 07:41:25;;;;;;;;;;;;;;;20.43;59.53;101954.00;5013219;28;20007;-77
2023/06/27 07:43:50;;;;;;;;;;;;;;;20.54;59.16;101951.66;5012974;28;19925;-77
2023/06/27 07:46:15;;;;;;;;;;;;;;;20.65;58.43;101947.63;4995688;28;20317;-77
2023/06/27 07:48:41;;;;;;;;;;;;;;;20.77;59.72;101945.28;5012546;28;20280;-77
2023/06/27 07:51:06;;;;;;;;;;;;;;;20.85;57.39;101944.03;5005175;28;19925;-77
2023/06/27 07:53:31;;;;;;;;;;;;;;;20.80;57.71;101942.41;5007065;28;19968;-77
2023/06/27 07:55:57;;;;;;;;;;;;;;;20.95;58.61;101937.25;5012963;28;20256;-77
2023/06/27 07:58:22;;;;;;;;;;;;;;;21.00;56.08;101937.91;4995002;28;19972;-77
2023/06/27 08:00:47;;;;;;;;;;;;;;;21.02;54.67;101944.09;4995232;28;20145;-77
2023/06/27 08:03:13;;;;;;;;;;;;;;;21.03;52.78;101941.31;5012646;28;19927;-77
2023/06/27 08:05:39;;;;;;;;;;;;;;;21.05;54.56;101944.81;5012530;28;20121;-77
2023/06/27 08:08:04;;;;;;;;;;;;;;;21.13;54.53;101944.44;4978584;28;19933;-77
2023/06/27 08:10:29;;;;;;;;;;;;;;;21.20;54.45;101939.63;4995063;28;19952;-77
2023/06/27 08:12:55;;;;;;;;;;;;;;;21.29;53.94;101941.88;5012519;28;19994;-77
2023/06/27 08:15:22;;;;;;;;;;;;;;;21.33;52.86;101932.69;5005274;28;19922;-77
2023/06/27 08:17:48;;;;;;;;;;;;;;;21.40;51.72;101933.28;5006893;28;19925;-77
2023/06/27 08:20:13;;;;;;;;;;;;;;;21.40;51.00;101938.69;5012532;28;19943;-77
2023/06/27 08:22:38;;;;;;;;;;;;;;;21.21;51.63;101935.97;5012766;28;19932;-77
2023/06/27 08:25:04;;;;;;;;;;;;;;;21.12;51.64;101936.44;5012448;28;20003;-76
2023/06/27 08:27:29;;;;;;;;;;;;;;;21.03;52.53;101943.13;4994854;28;19926;-77
2023/06/27 08:29:55;;;;;;;;;;;;;;;20.97;53.12;101933.53;5012566;28;20019;-77
2023/06/27 08:32:20;;;;;;;;;;;;;;;20.92;53.86;101940.06;5012541;28;19925;-77
2023/06/27 08:34:45;;;;;;;;;;;;;;;20.89;54.83;101938.41;4995293;28;20408;-77
2023/06/27 08:37:11;;;;;;;;;;;;;;;20.88;54.49;101938.50;5012471;28;20349;-77
2023/06/27 08:39:37;;;;;;;;;;;;;;;20.78;55.23;101932.69;5012519;28;20339;-77
2023/06/27 08:42:02;;;;;;;;;;;;;;;20.75;55.83;101938.22;4995055;28;19918;-77
2023/06/27 08:44:28;;;;;;;;;;;;;;;20.73;55.35;101938.28;4992939;28;19939;-77
2023/06/27 08:46:55;;;;;;;;;;;;;;;20.79;53.78;101937.09;4972232;28;20384;-77
2023/06/27 08:49:24;;;;;;;;;;;;;;;20.83;52.10;101933.31;5004922;28;20005;-77
2023/06/27 08:51:52;;;;;;;;;;;;;;;20.90;52.96;101937.47;5012276;28;19928;-77
2023/06/27 08:54:30;;;;;;;;;;;;;;;20.92;51.31;101927.50;5012122;28;19968;-77
2023/06/27 08:56:56;;;;;;;;;;;;;;;20.89;50.97;101934.84;4994606;28;19917;-76
2023/06/27 08:59:24;;;;;;;;;;;;;;;20.98;51.81;101934.41;5012021;28;20011;-77
2023/06/27 09:01:50;;;;;;;;;;;;;;;21.12;50.66;101936.44;4999939;28;19929;-77
2023/06/27 09:04:16;;;;;;;;;;;;;;;21.12;50.64;101929.22;4992546;28;19922;-77
2023/06/27 09:06:43;;;;;;;;;;;;;;;21.09;51.05;101928.50;5011043;28;19936;-77
2023/06/27 09:09:11;;;;;;;;;;;;;;;21.14;51.45;101926.44;5010622;28;19975;-77
2023/06/27 09:11:36;;;;;;;;;;;;;;;21.23;51.14;101940.34;5011601;28;19917;-77
2023/06/27 09:14:01;;;;;;;;;;;;;;;21.30;51.80;101931.97;4977735;28;19940;-77
2023/06/27 09:16:27;;;;;;;;;;;;;;;21.35;51.11;101933.47;5007662;28;19926;-77
2023/06/27 09:18:52;;;;;;;;;;;;;;;21.37;51.04;101936.09;5000611;28;19925;-77
2023/06/27 09:21:19;;;;;;;;;;;;;;;21.35;48.45;101924.53;5011599;28;19917;-77
2023/06/27 09:23:45;;;;;;;;;;;;;;;21.48;48.14;101931.06;5011602;28;19913;-77
2023/06/27 09:26:11;;;;;;;;;;;;;;;21.73;48.22;101932.53;4993618;28;19928;-77
2023/06/27 09:28:50;;;;;;;;;;;;;;;21.95;45.55;101932.28;5006569;28;20381;-77
2023/06/27 09:31:19;;;;;;;;;;;;;;;22.01;45.10;101935.53;4986869;28;19937;-77
2023/06/27 09:33:45;;;;;;;;;;;;;;;22.00;43.78;101939.16;4993419;28;19917;-77
2023/06/27 09:36:11;;;;;;;;;;;;;;;21.83;42.43;101934.66;5012029;28;19995;-77
2023/06/27 09:38:36;;;;;;;;;;;;;;;21.85;45.11;101939.97;4993200;28;20388;-77
2023/06/27 09:41:08;;;;;;;;;;;;;;;21.85;44.70;101937.28;5002517;28;20001;-77
2023/06/27 09:43:35;;;;;;;;;;;;;;;21.79;44.76;101945.69;5007149;28;19921;-77
2023/06/27 09:46:01;;;;;;;;;;;;;;;21.85;45.41;101951.63;5011114;28;19921;-77
2023/06/27 09:48:29;;;;;;;;;;;;;;;21.83;45.20;101949.97;5011126;28;19921;-77
2023/06/27 09:50:59;;;;;;;;;;;;;;;21.83;43.89;101948.13;5011046;28;19921;-78
2023/06/27 09:53:24;;;;;;;;;;;;;;;21.74;44.09;101948.63;5011004;28;20368;-77
2023/06/27 09:55:55;;;;;;;;;;;;;;;21.74;45.64;101951.31;4992989;28;19925;-77
2023/06/27 09:58:30;;;;;;;;;;;;;;;21.93;44.93;101943.13;4992284;28;20237;-77
2023/06/27 10:01:04;;;;;;;;;;;;;;;22.05;43.78;101949.72;5010798;28;20384;-77
2023/06/27 10:03:29;;;;;;;;;;;;;;;22.08;43.32;101952.25;5010535;28;19922;-77
2023/06/27 10:05:55;;;;;;;;;;;;;;;21.98;43.42;101943.75;5010658;28;19972;-77
2023/06/27 10:08:20;;;;;;;;;;;;;;;21.89;44.02;101941.56;5008736;28;19958;-77
2023/06/27 10:10:46;;;;;;;;;;;;;;;22.02;44.73;101941.78;4994799;28;19921;-77
2023/06/27 10:13:12;;;;;;;;;;;;;;;22.17;43.33;101938.28;4976483;28;19929;-77
2023/06/27 10:15:38;;;;;;;;;;;;;;;22.32;43.31;101956.38;4992506;28;20326;-77
2023/06/27 10:18:03;;;;;;;;;;;;;;;22.28;43.84;101949.41;5008415;28;19913;-77
2023/06/27 10:20:28;;;;;;;;;;;;;;;22.35;44.62;101947.25;4980984;28;20012;-77
2023/06/27 10:22:54;;;;;;;;;;;;;;;22.48;44.06;101942.09;5008885;28;19925;-77
2023/06/27 10:25:20;;;;;;;;;;;;;;;22.45;43.54;101950.31;4992359;28;19921;-77
2023/06/27 10:27:45;;;;;;;;;;;;;;;22.57;43.64;101946.09;5010189;28;20403;-77
2023/06/27 10:30:12;;;;;;;;;;;;;;;22.63;42.48;101952.03;4992201;28;19918;-77
2023/06/27 10:32:44;;;;;;;;;;;;;;;22.58;44.43;101955.94;5010377;28;20008;-77
2023/06/27 10:35:11;;;;;;;;;;;;;;;22.60;41.58;101944.09;5010106;28;19941;-77
2023/06/27 10:37:38;;;;;;;;;;;;;;;22.81;42.86;101944.72;5001056;28;19925;-77
2023/06/27 10:40:04;;;;;;;;;;;;;;;23.11;41.33;101939.44;5005628;28;19917;-77
2023/06/27 10:42:31;;;;;;;;;;;;;;;23.39;41.16;101932.44;5010123;28;20368;-77
2023/06/27 10:44:59;;;;;;;;;;;;;;;23.64;39.87;101933.69;4992385;28;19917;-77
2023/06/27 10:47:26;;;;;;;;;;;;;;;23.64;40.43;101923.78;5009802;28;19921;-77
2023/06/27 10:49:53;;;;;;;;;;;;;;;23.70;40.83;101928.81;5005235;28;19922;-77
2023/06/27 10:52:22;;;;;;;;;;;;;;;23.84;39.76;101917.19;5009985;28;19929;-77
2023/06/27 10:55:06;;;;;;;;;;;;;;;23.75;39.70;101932.13;5009945;28;19917;-77
2023/06/27 10:57:38;;;;;;;;;;;;;;;23.48;38.28;101934.59;5010026;28;19976;-77
2023/06/27 11:00:14;;;;;;;;;;;;;;;23.42;40.06;101932.28;4992196;28;19929;-77
2023/06/27 11:02:43;;;;;;;;;;;;;;;23.60;39.19;101928.47;5009935;28;20341;-77
2023/06/27 11:05:12;;;;;;;;;;;;;;;23.50;39.24;101926.41;4992258;28;19961;-77
2023/06/27 11:07:37;;;;;;;;;;;;;;;23.49;41.20;101925.56;4991594;28;20048;-76
2023/06/27 11:10:20;;;;;;;;;;;;;;;23.39;41.12;101921.63;5012699;28;20055;-77
2023/06/27 11:12:48;;;;;;;;;;;;;;;23.30;41.10;101933.88;5013330;28;20297;-77
2023/06/27 11:15:13;;;;;;;;;;;;;;;23.22;40.88;101937.97;5013653;28;19945;-77
2023/06/27 11:17:39;;;;;;;;;;;;;;;23.13;41.71;101926.72;5013594;28;20280;-77
2023/06/27 11:20:07;;;;;;;;;;;;;;;23.32;42.63;101929.25;4995671;28;19917;-77
2023/06/27 11:22:33;;;;;;;;;;;;;;;23.67;40.98;101920.88;5002465;28;19926;-77
2023/06/27 11:24:58;;;;;;;;;;;;;;;23.84;39.61;101928.00;5010409;28;19941;-77
2023/06/27 11:27:33;;;;;;;;;;;;;;;24.03;38.81;101922.34;5013206;28;20453;-77
2023/06/27 11:29:58;;;;;;;;;;;;;;;24.18;38.17;101918.69;4995445;28;20040;-78
2023/06/27 11:32:24;;;;;;;;;;;;;;;24.27;36.46;101924.50;4995654;28;20004;-77
2023/06/27 11:34:49;;;;;;;;;;;;;;;24.32;36.77;101922.38;4995352;28;19940;-77
2023/06/27 11:37:14;;;;;;;;;;;;;;;24.23;37.74;101927.41;4999581;28;19928;-77
2023/06/27 11:39:50;;;;;;;;;;;;;;;24.16;37.74;101922.44;5001372;28;19984;-77
2023/06/27 11:42:16;;;;;;;;;;;;;;;24.23;37.25;101926.50;5012362;28;19937;-77
2023/06/27 11:44:41;;;;;;;;;;;;;;;24.30;36.87;101932.41;4995559;28;19922;-77
2023/06/27 11:47:06;;;;;;;;;;;;;;;24.18;36.81;101925.91;5012965;28;19953;-77
2023/06/27 11:49:32;;;;;;;;;;;;;;;24.16;37.41;101928.75;5008099;28;20303;-77
2023/06/27 11:51:58;;;;;;;;;;;;;;;23.97;37.14;101923.59;5012879;28;19948;-77
2023/06/27 11:54:23;;;;;;;;;;;;;;;24.00;37.60;101925.22;5013130;28;19917;-77
2023/06/27 11:56:49;;;;;;;;;;;;;;;24.15;37.30;101929.69;5012969;28;20534;-78
2023/06/27 11:59:14;;;;;;;;;;;;;;;24.17;37.33;101924.19;5013066;28;19917;-78
2023/06/27 12:01:44;;;;;;;;;;;;;;;24.23;37.91;101922.00;5012951;28;19976;-77
2023/06/27 12:04:16;;;;;;;;;;;;;;;24.41;38.39;101930.78;4994940;28;20658;-77
2023/06/27 12:06:42;;;;;;;;;;;;;;;24.45;38.09;101921.50;4993345;28;20305;-77
2023/06/27 12:09:08;;;;;;;;;;;;;;;24.55;37.29;101921.78;4992128;28;19921;-77
2023/06/27 12:11:37;;;;;;;;;;;;;;;24.58;37.31;101928.84;4997653;28;19921;-77
2023/06/27 12:14:03;;;;;;;;;;;;;;;24.51;36.73;101927.53;5012500;28;20373;-77
2023/06/27 12:16:29;;;;;;;;;;;;;;;24.44;36.49;101918.88;5012945;28;19925;-77
2023/06/27 12:19:15;;;;;;;;;;;;;;;24.39;35.50;101931.84;5012479;28;19922;-77
2023/06/27 12:21:40;;;;;;;;;;;;;;;24.51;37.06;101917.56;4993491;28;20400;-77
2023/06/27 12:24:06;;;;;;;;;;;;;;;24.71;37.87;101921.72;5012576;28;19956;-77
2023/06/27 12:26:31;;;;;;;;;;;;;;;24.71;36.41;101920.84;5012333;28;19922;-77
2023/06/27 12:28:58;;;;;;;;;;;;;;;24.64;37.16;101915.81;5012761;28;19928;-77
2023/06/27 12:31:23;;;;;;;;;;;;;;;24.51;37.93;101922.97;4981282;28;19921;-77